WetterOnline ( https://www.wetteronline.de )

Wetter aktuell Langweiler

Aktuelles Wetter: Deuselbach (483m)

6-stündlich | Neueste Meldungen
Ortszeit Temperatur Wetter
Sa, 18.09. 14:00 18.7° C Sprühregen
Sa, 18.09. 8:00 9.6° C wolkig
Sa, 18.09. 2:00 10.0° C leicht bewölkt
Fr, 17.09. 20:00 14.0° C wolkenlos
Fr, 17.09. 14:00 16.6° C bewölkt
Fr, 17.09. 8:00 11.2° C bedeckt
Fr, 17.09. 2:00 10.9° C wolkenlos
Do, 16.09. 20:00 14.3° C bedeckt
Ortszeit Temperatur Wetter
Sa, 18.09. 16:30 19.4° C fast wolkenlos
Sa, 18.09. 16:20 19.4° C fast wolkenlos
Sa, 18.09. 16:10 19.3° C leicht bewölkt
Sa, 18.09. 16:00 19.0° C fast wolkenlos
Sa, 18.09. 15:50 19.0° C fast wolkenlos
Sa, 18.09. 15:40 18.9° C wolkenlos
Sa, 18.09. 15:30 19.3° C wolkenlos
Sa, 18.09. 15:00 19.0° C wolkenlos
Sa, 18.09. 14:30 19.1° C wolkenlos
Sa, 18.09. 14:00 18.7° C Sprühregen
Sa, 18.09. 13:30 18.2° C fast wolkenlos
Ortszeit Relative Feuchte Sichtweite
Sa, 18.09. 14:00 57% 24 km
Sa, 18.09. 8:00 93% 40 km
Sa, 18.09. 2:00 95% 40 km
Fr, 17.09. 20:00 80% 2.0 km
Fr, 17.09. 14:00 72% 40 km
Fr, 17.09. 8:00 98% 11 km
Fr, 17.09. 2:00 99% 16 km
Do, 16.09. 20:00 83% 45 km
Ortszeit Relative Feuchte Sichtweite
Sa, 18.09. 16:30 53% 30 km
Sa, 18.09. 16:20 53% -
Sa, 18.09. 16:10 55% -
Sa, 18.09. 16:00 54% 30 km
Sa, 18.09. 15:50 54% -
Sa, 18.09. 15:40 58% -
Sa, 18.09. 15:30 55% 30 km
Sa, 18.09. 15:00 54% 27 km
Sa, 18.09. 14:30 51% 45 km
Sa, 18.09. 14:00 57% 24 km
Sa, 18.09. 13:30 57% 30 km
Ortszeit Niederschlagsmenge Niederschlagsart
Sa, 18.09. 14:00 0.1 l/m2 in 6 Std. Sprühregen
Sa, 18.09. 8:00 0.1 l/m2 in 12 Std. -
Sa, 18.09. 2:00 0.0 l/m2 in 6 Std. -
Fr, 17.09. 20:00 0.0 l/m2 in 12 Std. -
Fr, 17.09. 14:00 0.0 l/m2 in 6 Std. -
Fr, 17.09. 8:00 0.0 l/m2 in 12 Std. -
Fr, 17.09. 2:00 0.0 l/m2 in 6 Std. -
Do, 16.09. 20:00 0.1 l/m2 in 12 Std. -
Ortszeit Niederschlagsmenge Niederschlagsart
Sa, 18.09. 16:30 0.0 l/m2 in 1 Std. -
Sa, 18.09. 16:20 keine Meldung -
Sa, 18.09. 16:10 keine Meldung -
Sa, 18.09. 16:00 0.0 l/m2 in 1 Std. -
Sa, 18.09. 15:50 keine Meldung -
Sa, 18.09. 15:40 keine Meldung -
Sa, 18.09. 15:30 0.0 l/m2 in 1 Std. -
Sa, 18.09. 15:00 0.1 l/m2 in 1 Std. Sprühregen
Sa, 18.09. 14:30 0.1 l/m2 in 1 Std. Schnee
Sa, 18.09. 14:00 0.1 l/m2 in 1 Std. Sprühregen
Sa, 18.09. 13:30 0.0 l/m2 in 1 Std. -
Ortszeit Stärke Spitze Richtung
km/h Bft. km/h Grad Sektor
Sa, 18.09. 14:00 15 3 22 230° SW
Sa, 18.09. 8:00 7 2 11 290° W
Sa, 18.09. 2:00 4 1 14 290° W
Fr, 17.09. 20:00 9 2 15 280° W
Fr, 17.09. 14:00 6 1 13 200° S
Fr, 17.09. 8:00 4 1 11 320° NW
Fr, 17.09. 2:00 4 1 7 310° NW
Do, 16.09. 20:00 4 1 22 70° O
Ortszeit Stärke Spitze Richtung
km/h Bft. km/h Grad Sektor
Sa, 18.09. 16:30 15 3 22 230° SW
Sa, 18.09. 16:20 15 3 - 230° SW
Sa, 18.09. 16:10 14 3 - 220° SW
Sa, 18.09. 16:00 14 3 22 240° SW
Sa, 18.09. 15:50 14 3 - 240° SW
Sa, 18.09. 15:40 13 3 - 230° SW
Sa, 18.09. 15:30 13 3 20 230° SW
Sa, 18.09. 15:00 14 3 25 230° SW
Sa, 18.09. 14:30 14 3 22 260° W
Sa, 18.09. 14:00 15 3 22 230° SW
Sa, 18.09. 13:30 11 2 18 240° SW
Ortszeit Untergrenze Bedeckung Gattung
total tief tief mittel hoch
Sa, 18.09. 14:00 9000 m 5/8 0/8 - - -
Sa, 18.09. 8:00 6900 m 8/8 1/8 - - -
Sa, 18.09. 2:00 9000 m 4/8 0/8 - - -
Fr, 17.09. 20:00 - 0/8 0/8 - - -
Fr, 17.09. 14:00 750 m 7/8 7/8 - - -
Fr, 17.09. 8:00 1500 m 8/8 8/8 - - -
Fr, 17.09. 2:00 - 0/8 0/8 - - -
Do, 16.09. 20:00 1290 m 8/8 8/8 - - -
Ortszeit Bedeckungsgrad in Achtel und Wolkenuntergrenze
Sa, 18.09. 16:30 1(1410m)
Sa, 18.09. 16:20 1(1410m)
Sa, 18.09. 16:10 2(1380m)
Sa, 18.09. 16:00 1(1350m)
Sa, 18.09. 15:50 1(1350m)
Sa, 18.09. 15:40 keine Wolken
Sa, 18.09. 15:30 keine Wolken
Sa, 18.09. 15:00 keine Wolken
Sa, 18.09. 14:30 keine Wolken
Sa, 18.09. 14:00 5(9000m)
Sa, 18.09. 13:30 2(9000m)
Ortszeit Luftdruck NN (hPa) Tendenz (hPa in 3 Std.)
Sa, 18.09. 14:00 1016 - 0,4
Sa, 18.09. 8:00 1017 + 0,2
Sa, 18.09. 2:00 1018 + 0,2
Fr, 17.09. 20:00 1016 - 0,2
Fr, 17.09. 14:00 1016 - 0,5
Fr, 17.09. 8:00 1018 - 0,3
Fr, 17.09. 2:00 1019 + 0,1
Do, 16.09. 20:00 1018 + 0,2
Ortszeit Luftdruck NN (hPa) Tendenz (hPa in 3 Std.)
Sa, 18.09. 16:30 1015 - 1,0
Sa, 18.09. 16:20 1015 keine Meldung
Sa, 18.09. 16:10 1015 keine Meldung
Sa, 18.09. 16:00 1015 - 0,9
Sa, 18.09. 15:50 1015 keine Meldung
Sa, 18.09. 15:40 1015 keine Meldung
Sa, 18.09. 15:30 1015 - 1,0
Sa, 18.09. 15:00 1015 - 0,7
Sa, 18.09. 14:30 1015 - 0,7
Sa, 18.09. 14:00 1016 - 0,4
Sa, 18.09. 13:30 1016 - 0,3
Ortszeit Schneehöhe (cm)
Sa, 18.09. 14:00 -
Sa, 18.09. 8:00 -
Sa, 18.09. 2:00 -
Fr, 17.09. 20:00 -
Fr, 17.09. 14:00 -
Fr, 17.09. 8:00 -
Fr, 17.09. 2:00 -
Do, 16.09. 20:00 -
Ortszeit Schneehöhe (cm)
Sa, 18.09. 16:30 -
Sa, 18.09. 16:20 -
Sa, 18.09. 16:10 -
Sa, 18.09. 16:00 -
Sa, 18.09. 15:50 -
Sa, 18.09. 15:40 -
Sa, 18.09. 15:30 -
Sa, 18.09. 15:00 -
Sa, 18.09. 14:30 -
Sa, 18.09. 14:00 -
Sa, 18.09. 13:30 -
Link zu dieser Seite / Seite empfehlen

Das Wetter in ...